sensor_id;sensor_type;location;lat;lon;timestamp;temperature;humidity
54930;DHT22;40833;53.238;6.576;2022-12-24T00:02:11;6.20;99.90
54930;DHT22;40833;53.238;6.576;2022-12-24T00:04:37;6.20;99.90
54930;DHT22;40833;53.238;6.576;2022-12-24T00:07:03;6.20;99.90
54930;DHT22;40833;53.238;6.576;2022-12-24T00:09:29;6.30;99.90
54930;DHT22;40833;53.238;6.576;2022-12-24T00:11:54;6.20;99.90
54930;DHT22;40833;53.238;6.576;2022-12-24T00:14:20;6.20;99.90
54930;DHT22;40833;53.238;6.576;2022-12-24T00:16:45;6.20;99.90
54930;DHT22;40833;53.238;6.576;2022-12-24T00:19:11;6.50;99.90
54930;DHT22;40833;53.238;6.576;2022-12-24T00:21:37;6.50;99.90
54930;DHT22;40833;53.238;6.576;2022-12-24T00:24:03;6.30;99.90
54930;DHT22;40833;53.238;6.576;2022-12-24T00:26:33;6.20;99.90
54930;DHT22;40833;53.238;6.576;2022-12-24T00:28:59;6.20;99.90
54930;DHT22;40833;53.238;6.576;2022-12-24T00:31:25;6.40;99.90
54930;DHT22;40833;53.238;6.576;2022-12-24T00:33:51;6.20;99.90
54930;DHT22;40833;53.238;6.576;2022-12-24T00:36:17;6.20;99.90
54930;DHT22;40833;53.238;6.576;2022-12-24T00:38:44;6.20;99.90
54930;DHT22;40833;53.238;6.576;2022-12-24T00:41:11;6.20;99.90
54930;DHT22;40833;53.238;6.576;2022-12-24T00:44:00;6.50;99.90
54930;DHT22;40833;53.238;6.576;2022-12-24T00:46:28;6.50;99.90
54930;DHT22;40833;53.238;6.576;2022-12-24T00:48:54;6.20;99.90
54930;DHT22;40833;53.238;6.576;2022-12-24T00:51:21;6.50;99.90
54930;DHT22;40833;53.238;6.576;2022-12-24T00:53:47;6.20;99.90
54930;DHT22;40833;53.238;6.576;2022-12-24T00:56:13;6.20;99.90
54930;DHT22;40833;53.238;6.576;2022-12-24T00:58:38;6.20;99.90
54930;DHT22;40833;53.238;6.576;2022-12-24T01:01:04;6.20;99.90
54930;DHT22;40833;53.238;6.576;2022-12-24T01:03:31;6.20;99.90
54930;DHT22;40833;53.238;6.576;2022-12-24T01:06:07;6.60;99.90
54930;DHT22;40833;53.238;6.576;2022-12-24T01:08:34;6.20;99.90
54930;DHT22;40833;53.238;6.576;2022-12-24T01:11:01;6.40;99.90
54930;DHT22;40833;53.238;6.576;2022-12-24T01:13:26;6.20;99.90
54930;DHT22;40833;53.238;6.576;2022-12-24T01:15:52;6.20;99.90
54930;DHT22;40833;53.238;6.576;2022-12-24T01:18:18;6.80;99.90
54930;DHT22;40833;53.238;6.576;2022-12-24T01:20:44;6.50;99.90
54930;DHT22;40833;53.238;6.576;2022-12-24T01:23:10;6.80;99.90
54930;DHT22;40833;53.238;6.576;2022-12-24T01:25:37;8.00;99.90
54930;DHT22;40833;53.238;6.576;2022-12-24T01:28:04;6.30;99.90
54930;DHT22;40833;53.238;6.576;2022-12-24T01:30:30;6.30;99.90
54930;DHT22;40833;53.238;6.576;2022-12-24T01:32:57;6.30;99.90
54930;DHT22;40833;53.238;6.576;2022-12-24T01:35:22;6.20;99.90
54930;DHT22;40833;53.238;6.576;2022-12-24T01:37:48;6.40;99.90
54930;DHT22;40833;53.238;6.576;2022-12-24T01:40:15;6.20;99.90
54930;DHT22;40833;53.238;6.576;2022-12-24T01:43:01;6.30;99.90
54930;DHT22;40833;53.238;6.576;2022-12-24T01:45:49;6.20;99.90
54930;DHT22;40833;53.238;6.576;2022-12-24T01:50:55;6.20;99.90
54930;DHT22;40833;53.238;6.576;2022-12-24T01:53:22;6.10;99.90
54930;DHT22;40833;53.238;6.576;2022-12-24T01:55:48;6.20;99.90
54930;DHT22;40833;53.238;6.576;2022-12-24T01:58:16;6.20;99.90
54930;DHT22;40833;53.238;6.576;2022-12-24T02:00:43;6.20;99.90
54930;DHT22;40833;53.238;6.576;2022-12-24T02:03:09;6.30;99.90
54930;DHT22;40833;53.238;6.576;2022-12-24T02:05:49;6.30;99.90
54930;DHT22;40833;53.238;6.576;2022-12-24T02:08:17;6.30;99.90
54930;DHT22;40833;53.238;6.576;2022-12-24T02:10:47;6.70;99.90
54930;DHT22;40833;53.238;6.576;2022-12-24T02:13:18;6.20;99.90
54930;DHT22;40833;53.238;6.576;2022-12-24T02:15:55;6.30;99.90
54930;DHT22;40833;53.238;6.576;2022-12-24T02:18:32;6.30;99.90
54930;DHT22;40833;53.238;6.576;2022-12-24T02:29:33;6.20;99.90
54930;DHT22;40833;53.238;6.576;2022-12-24T02:32:12;6.30;99.90
54930;DHT22;40833;53.238;6.576;2022-12-24T02:37:36;6.30;99.90
54930;DHT22;40833;53.238;6.576;2022-12-24T02:40:19;6.30;99.90
54930;DHT22;40833;53.238;6.576;2022-12-24T02:42:52;6.30;99.90
54930;DHT22;40833;53.238;6.576;2022-12-24T02:45:29;6.40;99.90
54930;DHT22;40833;53.238;6.576;2022-12-24T02:47:55;6.30;99.90
54930;DHT22;40833;53.238;6.576;2022-12-24T02:50:22;6.30;99.90
54930;DHT22;40833;53.238;6.576;2022-12-24T02:52:48;6.40;99.90
54930;DHT22;40833;53.238;6.576;2022-12-24T02:55:31;6.40;99.90
54930;DHT22;40833;53.238;6.576;2022-12-24T03:06:02;6.30;99.90
54930;DHT22;40833;53.238;6.576;2022-12-24T03:11:19;6.40;99.90
54930;DHT22;40833;53.238;6.576;2022-12-24T03:13:46;6.40;99.90
54930;DHT22;40833;53.238;6.576;2022-12-24T03:16:22;6.40;99.90
54930;DHT22;40833;53.238;6.576;2022-12-24T03:18:49;6.40;99.90
54930;DHT22;40833;53.238;6.576;2022-12-24T03:21:25;6.50;99.90
54930;DHT22;40833;53.238;6.576;2022-12-24T03:23:52;6.50;99.90
54930;DHT22;40833;53.238;6.576;2022-12-24T03:26:18;6.50;99.90
54930;DHT22;40833;53.238;6.576;2022-12-24T03:28:45;6.60;99.90
54930;DHT22;40833;53.238;6.576;2022-12-24T03:31:12;6.60;99.90
54930;DHT22;40833;53.238;6.576;2022-12-24T03:33:38;6.70;99.90
54930;DHT22;40833;53.238;6.576;2022-12-24T03:36:05;6.70;99.90
54930;DHT22;40833;53.238;6.576;2022-12-24T03:38:30;6.80;99.90
54930;DHT22;40833;53.238;6.576;2022-12-24T03:40:56;6.80;99.90
54930;DHT22;40833;53.238;6.576;2022-12-24T03:43:22;6.90;99.90
54930;DHT22;40833;53.238;6.576;2022-12-24T03:45:48;6.90;99.90
54930;DHT22;40833;53.238;6.576;2022-12-24T03:48:13;7.00;99.90
54930;DHT22;40833;53.238;6.576;2022-12-24T03:50:39;7.00;99.90
54930;DHT22;40833;53.238;6.576;2022-12-24T03:53:05;7.20;99.90
54930;DHT22;40833;53.238;6.576;2022-12-24T03:55:30;7.40;99.90
54930;DHT22;40833;53.238;6.576;2022-12-24T03:57:56;7.10;99.90
54930;DHT22;40833;53.238;6.576;2022-12-24T04:00:22;7.20;99.90
54930;DHT22;40833;53.238;6.576;2022-12-24T04:02:47;7.20;99.90
54930;DHT22;40833;53.238;6.576;2022-12-24T04:05:18;7.20;99.90
54930;DHT22;40833;53.238;6.576;2022-12-24T04:07:44;7.30;99.90
54930;DHT22;40833;53.238;6.576;2022-12-24T04:10:10;7.30;99.90
54930;DHT22;40833;53.238;6.576;2022-12-24T04:12:36;7.40;99.90
54930;DHT22;40833;53.238;6.576;2022-12-24T04:15:03;7.30;99.90
54930;DHT22;40833;53.238;6.576;2022-12-24T04:17:29;7.30;99.90
54930;DHT22;40833;53.238;6.576;2022-12-24T04:19:55;7.30;99.90
54930;DHT22;40833;53.238;6.576;2022-12-24T04:22:20;7.40;99.90
54930;DHT22;40833;53.238;6.576;2022-12-24T04:24:46;7.40;99.90
54930;DHT22;40833;53.238;6.576;2022-12-24T04:27:15;7.40;99.90
54930;DHT22;40833;53.238;6.576;2022-12-24T04:29:41;7.40;99.90
54930;DHT22;40833;53.238;6.576;2022-12-24T04:32:07;7.70;99.90
54930;DHT22;40833;53.238;6.576;2022-12-24T04:34:34;7.50;99.90
54930;DHT22;40833;53.238;6.576;2022-12-24T04:37:00;7.60;99.90
54930;DHT22;40833;53.238;6.576;2022-12-24T04:39:25;7.80;99.90
54930;DHT22;40833;53.238;6.576;2022-12-24T04:41:51;7.50;99.90
54930;DHT22;40833;53.238;6.576;2022-12-24T04:44:17;7.50;99.90
54930;DHT22;40833;53.238;6.576;2022-12-24T04:46:42;7.70;99.90
54930;DHT22;40833;53.238;6.576;2022-12-24T04:49:09;7.70;99.90
54930;DHT22;40833;53.238;6.576;2022-12-24T04:51:35;7.70;99.90
54930;DHT22;40833;53.238;6.576;2022-12-24T04:54:01;7.80;99.90
54930;DHT22;40833;53.238;6.576;2022-12-24T04:56:29;8.20;99.90
54930;DHT22;40833;53.238;6.576;2022-12-24T04:58:56;7.90;99.90
54930;DHT22;40833;53.238;6.576;2022-12-24T05:01:26;7.80;99.90
54930;DHT22;40833;53.238;6.576;2022-12-24T05:03:52;7.80;99.90
54930;DHT22;40833;53.238;6.576;2022-12-24T05:06:25;7.70;99.90
54930;DHT22;40833;53.238;6.576;2022-12-24T05:08:53;7.70;99.90
54930;DHT22;40833;53.238;6.576;2022-12-24T05:11:20;7.90;99.90
54930;DHT22;40833;53.238;6.576;2022-12-24T05:13:46;7.60;99.90
54930;DHT22;40833;53.238;6.576;2022-12-24T05:16:12;7.70;99.90
54930;DHT22;40833;53.238;6.576;2022-12-24T05:18:38;7.70;99.90
54930;DHT22;40833;53.238;6.576;2022-12-24T05:21:15;7.80;99.90
54930;DHT22;40833;53.238;6.576;2022-12-24T05:23:41;7.70;99.90
54930;DHT22;40833;53.238;6.576;2022-12-24T05:26:33;7.80;99.90
54930;DHT22;40833;53.238;6.576;2022-12-24T05:29:00;7.80;99.90
54930;DHT22;40833;53.238;6.576;2022-12-24T05:31:28;7.80;99.90
54930;DHT22;40833;53.238;6.576;2022-12-24T05:33:53;7.80;99.90
54930;DHT22;40833;53.238;6.576;2022-12-24T05:36:20;8.00;99.90
54930;DHT22;40833;53.238;6.576;2022-12-24T05:38:46;7.80;99.90
54930;DHT22;40833;53.238;6.576;2022-12-24T05:41:12;7.80;99.90
54930;DHT22;40833;53.238;6.576;2022-12-24T05:43:38;7.80;99.90
54930;DHT22;40833;53.238;6.576;2022-12-24T05:46:07;7.80;99.90
54930;DHT22;40833;53.238;6.576;2022-12-24T05:48:34;7.80;99.90
54930;DHT22;40833;53.238;6.576;2022-12-24T05:51:04;7.80;99.90
54930;DHT22;40833;53.238;6.576;2022-12-24T05:53:30;7.90;99.90
54930;DHT22;40833;53.238;6.576;2022-12-24T05:56:03;7.90;99.90
54930;DHT22;40833;53.238;6.576;2022-12-24T05:58:29;7.90;99.90
54930;DHT22;40833;53.238;6.576;2022-12-24T06:00:54;7.90;99.90
54930;DHT22;40833;53.238;6.576;2022-12-24T06:03:20;7.90;99.90
54930;DHT22;40833;53.238;6.576;2022-12-24T06:05:46;7.90;99.90
54930;DHT22;40833;53.238;6.576;2022-12-24T06:08:11;7.90;99.90
54930;DHT22;40833;53.238;6.576;2022-12-24T06:10:37;7.90;99.90
54930;DHT22;40833;53.238;6.576;2022-12-24T06:13:02;8.40;99.90
54930;DHT22;40833;53.238;6.576;2022-12-24T06:15:28;8.10;99.90
54930;DHT22;40833;53.238;6.576;2022-12-24T06:17:54;8.20;99.90
54930;DHT22;40833;53.238;6.576;2022-12-24T06:20:20;7.90;99.90
54930;DHT22;40833;53.238;6.576;2022-12-24T06:22:45;8.10;99.90
54930;DHT22;40833;53.238;6.576;2022-12-24T06:25:11;8.20;99.90
54930;DHT22;40833;53.238;6.576;2022-12-24T06:27:37;7.90;99.90
54930;DHT22;40833;53.238;6.576;2022-12-24T06:30:03;7.90;99.90
54930;DHT22;40833;53.238;6.576;2022-12-24T06:32:29;7.90;99.90
54930;DHT22;40833;53.238;6.576;2022-12-24T06:34:57;7.90;99.90
54930;DHT22;40833;53.238;6.576;2022-12-24T06:37:23;7.90;99.90
54930;DHT22;40833;53.238;6.576;2022-12-24T06:39:48;8.10;99.90
54930;DHT22;40833;53.238;6.576;2022-12-24T06:42:14;7.90;99.90
54930;DHT22;40833;53.238;6.576;2022-12-24T06:44:40;7.90;99.90
54930;DHT22;40833;53.238;6.576;2022-12-24T06:47:06;7.90;99.90
54930;DHT22;40833;53.238;6.576;2022-12-24T06:49:31;9.40;99.90
54930;DHT22;40833;53.238;6.576;2022-12-24T06:51:57;8.00;99.90
54930;DHT22;40833;53.238;6.576;2022-12-24T06:54:22;8.10;99.90
54930;DHT22;40833;53.238;6.576;2022-12-24T06:56:48;8.00;99.90
54930;DHT22;40833;53.238;6.576;2022-12-24T06:59:14;8.00;99.90
54930;DHT22;40833;53.238;6.576;2022-12-24T07:01:39;8.10;99.90
54930;DHT22;40833;53.238;6.576;2022-12-24T07:04:05;8.00;99.90
54930;DHT22;40833;53.238;6.576;2022-12-24T07:06:31;8.10;99.90
54930;DHT22;40833;53.238;6.576;2022-12-24T07:08:56;8.00;99.90
54930;DHT22;40833;53.238;6.576;2022-12-24T07:11:23;8.10;99.90
54930;DHT22;40833;53.238;6.576;2022-12-24T07:13:49;8.10;99.90
54930;DHT22;40833;53.238;6.576;2022-12-24T07:16:15;8.40;99.90
54930;DHT22;40833;53.238;6.576;2022-12-24T07:18:41;8.40;99.90
54930;DHT22;40833;53.238;6.576;2022-12-24T07:21:07;8.10;99.90
54930;DHT22;40833;53.238;6.576;2022-12-24T07:23:33;8.10;99.90
54930;DHT22;40833;53.238;6.576;2022-12-24T07:26:00;8.10;99.90
54930;DHT22;40833;53.238;6.576;2022-12-24T07:28:26;8.30;99.90
54930;DHT22;40833;53.238;6.576;2022-12-24T07:30:51;8.20;99.90
54930;DHT22;40833;53.238;6.576;2022-12-24T07:33:17;8.30;99.90
54930;DHT22;40833;53.238;6.576;2022-12-24T07:35:43;8.00;99.90
54930;DHT22;40833;53.238;6.576;2022-12-24T07:38:08;8.30;99.90
54930;DHT22;40833;53.238;6.576;2022-12-24T07:40:34;7.90;99.90
54930;DHT22;40833;53.238;6.576;2022-12-24T07:43:00;7.80;99.90
54930;DHT22;40833;53.238;6.576;2022-12-24T07:45:25;7.70;99.90
54930;DHT22;40833;53.238;6.576;2022-12-24T07:47:51;7.70;99.90
54930;DHT22;40833;53.238;6.576;2022-12-24T07:50:17;7.70;99.90
54930;DHT22;40833;53.238;6.576;2022-12-24T07:52:43;7.60;99.90
54930;DHT22;40833;53.238;6.576;2022-12-24T07:55:09;7.60;99.90
54930;DHT22;40833;53.238;6.576;2022-12-24T07:57:34;7.60;99.90
54930;DHT22;40833;53.238;6.576;2022-12-24T08:00:00;8.20;99.90
54930;DHT22;40833;53.238;6.576;2022-12-24T08:02:25;7.60;99.90
54930;DHT22;40833;53.238;6.576;2022-12-24T08:04:51;7.90;99.90
54930;DHT22;40833;53.238;6.576;2022-12-24T08:07:17;7.70;99.90
54930;DHT22;40833;53.238;6.576;2022-12-24T08:09:42;7.70;99.90
54930;DHT22;40833;53.238;6.576;2022-12-24T08:12:10;7.70;99.90
54930;DHT22;40833;53.238;6.576;2022-12-24T08:14:36;8.10;99.90
54930;DHT22;40833;53.238;6.576;2022-12-24T08:17:02;8.20;99.90
54930;DHT22;40833;53.238;6.576;2022-12-24T08:19:27;7.80;99.90
54930;DHT22;40833;53.238;6.576;2022-12-24T08:21:53;8.20;99.90
54930;DHT22;40833;53.238;6.576;2022-12-24T08:24:19;7.80;99.90
54930;DHT22;40833;53.238;6.576;2022-12-24T08:26:44;7.80;99.90
54930;DHT22;40833;53.238;6.576;2022-12-24T08:29:10;7.80;99.90
54930;DHT22;40833;53.238;6.576;2022-12-24T08:31:36;8.10;99.90
54930;DHT22;40833;53.238;6.576;2022-12-24T08:34:03;7.80;99.90
54930;DHT22;40833;53.238;6.576;2022-12-24T08:36:28;7.90;99.90
54930;DHT22;40833;53.238;6.576;2022-12-24T08:38:54;7.90;99.90
54930;DHT22;40833;53.238;6.576;2022-12-24T08:41:20;7.90;99.90
54930;DHT22;40833;53.238;6.576;2022-12-24T08:43:45;8.00;99.90
54930;DHT22;40833;53.238;6.576;2022-12-24T08:46:11;8.00;99.90
54930;DHT22;40833;53.238;6.576;2022-12-24T08:48:37;8.00;99.90
54930;DHT22;40833;53.238;6.576;2022-12-24T08:51:10;8.10;99.90
54930;DHT22;40833;53.238;6.576;2022-12-24T08:53:36;8.10;99.90
54930;DHT22;40833;53.238;6.576;2022-12-24T08:56:05;8.10;99.90
54930;DHT22;40833;53.238;6.576;2022-12-24T08:58:31;8.10;99.90
54930;DHT22;40833;53.238;6.576;2022-12-24T09:00:57;8.20;99.90
54930;DHT22;40833;53.238;6.576;2022-12-24T09:03:23;8.20;99.90
54930;DHT22;40833;53.238;6.576;2022-12-24T09:05:49;8.20;99.90
54930;DHT22;40833;53.238;6.576;2022-12-24T09:08:15;8.30;99.90
54930;DHT22;40833;53.238;6.576;2022-12-24T09:10:41;8.20;99.90
54930;DHT22;40833;53.238;6.576;2022-12-24T09:13:06;8.30;99.90
54930;DHT22;40833;53.238;6.576;2022-12-24T09:15:32;8.30;99.90
54930;DHT22;40833;53.238;6.576;2022-12-24T09:17:58;8.50;99.90
54930;DHT22;40833;53.238;6.576;2022-12-24T09:20:23;8.30;99.90
54930;DHT22;40833;53.238;6.576;2022-12-24T09:22:49;8.40;99.90
54930;DHT22;40833;53.238;6.576;2022-12-24T09:25:15;8.30;99.90
54930;DHT22;40833;53.238;6.576;2022-12-24T09:27:40;8.40;99.90
54930;DHT22;40833;53.238;6.576;2022-12-24T09:30:07;8.60;99.90
54930;DHT22;40833;53.238;6.576;2022-12-24T09:32:33;8.40;99.90
54930;DHT22;40833;53.238;6.576;2022-12-24T09:34:59;8.30;99.90
54930;DHT22;40833;53.238;6.576;2022-12-24T09:37:25;8.30;99.90
54930;DHT22;40833;53.238;6.576;2022-12-24T09:39:51;8.30;99.90
54930;DHT22;40833;53.238;6.576;2022-12-24T09:47:48;8.40;99.90
54930;DHT22;40833;53.238;6.576;2022-12-24T09:51:05;8.40;99.90
54930;DHT22;40833;53.238;6.576;2022-12-24T09:53:46;8.40;99.90
54930;DHT22;40833;53.238;6.576;2022-12-24T09:56:27;8.50;99.90
54930;DHT22;40833;53.238;6.576;2022-12-24T10:01:24;8.40;99.90
54930;DHT22;40833;53.238;6.576;2022-12-24T10:03:50;8.40;99.90
54930;DHT22;40833;53.238;6.576;2022-12-24T10:06:20;8.50;99.90
54930;DHT22;40833;53.238;6.576;2022-12-24T10:09:01;8.50;99.90
54930;DHT22;40833;53.238;6.576;2022-12-24T10:17:11;8.60;99.90
54930;DHT22;40833;53.238;6.576;2022-12-24T10:22:35;8.70;99.90
54930;DHT22;40833;53.238;6.576;2022-12-24T10:25:11;8.80;99.90
54930;DHT22;40833;53.238;6.576;2022-12-24T10:27:38;8.80;99.90
54930;DHT22;40833;53.238;6.576;2022-12-24T10:30:21;8.80;99.90
54930;DHT22;40833;53.238;6.576;2022-12-24T10:32:50;8.90;99.90
54930;DHT22;40833;53.238;6.576;2022-12-24T10:35:23;9.00;99.90
54930;DHT22;40833;53.238;6.576;2022-12-24T10:37:50;9.10;99.90
54930;DHT22;40833;53.238;6.576;2022-12-24T10:40:32;9.40;99.90
54930;DHT22;40833;53.238;6.576;2022-12-24T10:42:59;9.10;99.90
54930;DHT22;40833;53.238;6.576;2022-12-24T10:45:31;9.10;99.90
54930;DHT22;40833;53.238;6.576;2022-12-24T10:48:04;9.20;99.90
54930;DHT22;40833;53.238;6.576;2022-12-24T10:50:36;9.20;99.90
54930;DHT22;40833;53.238;6.576;2022-12-24T10:53:13;9.20;99.90
54930;DHT22;40833;53.238;6.576;2022-12-24T10:55:42;9.30;99.90
54930;DHT22;40833;53.238;6.576;2022-12-24T10:58:14;9.30;99.90
54930;DHT22;40833;53.238;6.576;2022-12-24T11:00:41;9.30;99.90
54930;DHT22;40833;53.238;6.576;2022-12-24T11:03:32;9.30;99.90
54930;DHT22;40833;53.238;6.576;2022-12-24T11:06:07;9.40;99.90
54930;DHT22;40833;53.238;6.576;2022-12-24T11:08:34;9.40;99.90
54930;DHT22;40833;53.238;6.576;2022-12-24T11:11:06;9.40;99.90
54930;DHT22;40833;53.238;6.576;2022-12-24T11:16:05;9.40;99.90
54930;DHT22;40833;53.238;6.576;2022-12-24T11:18:34;9.40;99.90
54930;DHT22;40833;53.238;6.576;2022-12-24T11:21:01;9.40;99.90
54930;DHT22;40833;53.238;6.576;2022-12-24T11:23:28;9.40;99.90
54930;DHT22;40833;53.238;6.576;2022-12-24T11:25:55;9.40;99.90
54930;DHT22;40833;53.238;6.576;2022-12-24T11:28:24;9.50;99.90
54930;DHT22;40833;53.238;6.576;2022-12-24T11:31:00;9.50;99.90
54930;DHT22;40833;53.238;6.576;2022-12-24T11:33:27;9.50;99.90
54930;DHT22;40833;53.238;6.576;2022-12-24T11:36:13;9.50;99.90
54930;DHT22;40833;53.238;6.576;2022-12-24T11:38:40;9.50;99.90
54930;DHT22;40833;53.238;6.576;2022-12-24T11:41:09;9.50;99.90
54930;DHT22;40833;53.238;6.576;2022-12-24T11:43:46;9.50;99.90
54930;DHT22;40833;53.238;6.576;2022-12-24T11:51:38;9.50;99.90
54930;DHT22;40833;53.238;6.576;2022-12-24T11:54:14;9.50;99.90
54930;DHT22;40833;53.238;6.576;2022-12-24T11:56:46;9.60;99.90
54930;DHT22;40833;53.238;6.576;2022-12-24T12:01:46;9.60;99.90
54930;DHT22;40833;53.238;6.576;2022-12-24T12:04:19;9.60;99.90
54930;DHT22;40833;53.238;6.576;2022-12-24T12:06:59;9.60;99.90
54930;DHT22;40833;53.238;6.576;2022-12-24T12:09:36;9.60;99.90
54930;DHT22;40833;53.238;6.576;2022-12-24T12:12:16;9.60;99.90
54930;DHT22;40833;53.238;6.576;2022-12-24T12:14:53;9.70;99.90
54930;DHT22;40833;53.238;6.576;2022-12-24T12:25:39;9.60;99.90
54930;DHT22;40833;53.238;6.576;2022-12-24T12:28:56;9.60;99.90
54930;DHT22;40833;53.238;6.576;2022-12-24T12:31:20;9.50;99.90
54930;DHT22;40833;53.238;6.576;2022-12-24T12:33:58;9.50;99.90
54930;DHT22;40833;53.238;6.576;2022-12-24T12:36:30;9.70;99.90
54930;DHT22;40833;53.238;6.576;2022-12-24T12:38:58;9.50;99.90
54930;DHT22;40833;53.238;6.576;2022-12-24T12:58:29;9.70;99.90
54930;DHT22;40833;53.238;6.576;2022-12-24T13:01:06;9.70;99.90
54930;DHT22;40833;53.238;6.576;2022-12-24T13:03:48;9.80;99.90
54930;DHT22;40833;53.238;6.576;2022-12-24T13:06:35;9.80;99.90
54930;DHT22;40833;53.238;6.576;2022-12-24T13:12:08;9.70;99.90
54930;DHT22;40833;53.238;6.576;2022-12-24T13:20:32;9.70;99.90
54930;DHT22;40833;53.238;6.576;2022-12-24T13:22:58;9.70;99.90
54930;DHT22;40833;53.238;6.576;2022-12-24T13:25:45;9.70;99.90
54930;DHT22;40833;53.238;6.576;2022-12-24T13:30:41;9.60;99.90
54930;DHT22;40833;53.238;6.576;2022-12-24T13:33:12;9.60;99.90
54930;DHT22;40833;53.238;6.576;2022-12-24T13:35:57;9.60;99.90
54930;DHT22;40833;53.238;6.576;2022-12-24T13:40:53;9.60;99.90
54930;DHT22;40833;53.238;6.576;2022-12-24T13:43:18;9.50;99.90
54930;DHT22;40833;53.238;6.576;2022-12-24T13:45:53;9.50;99.90
54930;DHT22;40833;53.238;6.576;2022-12-24T13:48:31;9.50;99.90
54930;DHT22;40833;53.238;6.576;2022-12-24T13:51:00;9.50;99.90
54930;DHT22;40833;53.238;6.576;2022-12-24T13:53:42;9.50;99.90
54930;DHT22;40833;53.238;6.576;2022-12-24T13:58:41;9.40;99.90
54930;DHT22;40833;53.238;6.576;2022-12-24T14:01:09;9.30;99.90
54930;DHT22;40833;53.238;6.576;2022-12-24T14:03:46;9.30;99.90
54930;DHT22;40833;53.238;6.576;2022-12-24T14:06:25;9.20;99.90
54930;DHT22;40833;53.238;6.576;2022-12-24T14:08:55;9.20;99.90
54930;DHT22;40833;53.238;6.576;2022-12-24T14:11:24;9.20;99.90
54930;DHT22;40833;53.238;6.576;2022-12-24T14:13:53;9.30;99.90
54930;DHT22;40833;53.238;6.576;2022-12-24T14:16:41;9.20;99.90
54930;DHT22;40833;53.238;6.576;2022-12-24T14:21:42;9.10;99.90
54930;DHT22;40833;53.238;6.576;2022-12-24T14:24:34;9.10;99.90
54930;DHT22;40833;53.238;6.576;2022-12-24T14:27:20;9.10;99.90
54930;DHT22;40833;53.238;6.576;2022-12-24T14:30:05;9.10;99.90
54930;DHT22;40833;53.238;6.576;2022-12-24T14:32:39;9.10;99.90
54930;DHT22;40833;53.238;6.576;2022-12-24T14:35:07;9.00;99.90
54930;DHT22;40833;53.238;6.576;2022-12-24T14:37:34;9.00;99.90
54930;DHT22;40833;53.238;6.576;2022-12-24T14:40:01;9.00;99.90
54930;DHT22;40833;53.238;6.576;2022-12-24T14:48:10;9.00;99.90
54930;DHT22;40833;53.238;6.576;2022-12-24T14:56:16;8.90;99.90
54930;DHT22;40833;53.238;6.576;2022-12-24T14:58:43;9.00;99.90
54930;DHT22;40833;53.238;6.576;2022-12-24T15:01:27;9.00;99.90
54930;DHT22;40833;53.238;6.576;2022-12-24T15:09:03;8.90;99.90
54930;DHT22;40833;53.238;6.576;2022-12-24T15:11:30;8.80;99.90
54930;DHT22;40833;53.238;6.576;2022-12-24T15:13:58;8.80;99.90
54930;DHT22;40833;53.238;6.576;2022-12-24T15:16:30;8.80;99.90
54930;DHT22;40833;53.238;6.576;2022-12-24T15:19:05;8.80;99.90
54930;DHT22;40833;53.238;6.576;2022-12-24T15:21:37;8.70;99.90
54930;DHT22;40833;53.238;6.576;2022-12-24T15:24:36;8.80;99.90
54930;DHT22;40833;53.238;6.576;2022-12-24T15:27:19;8.60;99.90
54930;DHT22;40833;53.238;6.576;2022-12-24T15:29:48;8.50;99.90
54930;DHT22;40833;53.238;6.576;2022-12-24T15:32:16;8.40;99.90
54930;DHT22;40833;53.238;6.576;2022-12-24T15:34:50;8.30;99.90
54930;DHT22;40833;53.238;6.576;2022-12-24T15:37:43;8.20;99.90
54930;DHT22;40833;53.238;6.576;2022-12-24T15:40:21;8.10;99.90
54930;DHT22;40833;53.238;6.576;2022-12-24T15:42:46;8.10;99.90
54930;DHT22;40833;53.238;6.576;2022-12-24T15:45:25;8.20;99.90
54930;DHT22;40833;53.238;6.576;2022-12-24T15:48:13;7.90;99.90
54930;DHT22;40833;53.238;6.576;2022-12-24T15:50:46;7.90;99.90
54930;DHT22;40833;53.238;6.576;2022-12-24T15:55:46;7.80;99.90
54930;DHT22;40833;53.238;6.576;2022-12-24T15:58:28;7.70;99.90
54930;DHT22;40833;53.238;6.576;2022-12-24T16:04:00;7.70;99.90
54930;DHT22;40833;53.238;6.576;2022-12-24T16:06:25;7.60;99.90
54930;DHT22;40833;53.238;6.576;2022-12-24T16:08:53;7.50;99.90
54930;DHT22;40833;53.238;6.576;2022-12-24T16:16:39;7.40;99.90
54930;DHT22;40833;53.238;6.576;2022-12-24T16:19:13;7.40;99.90
54930;DHT22;40833;53.238;6.576;2022-12-24T16:21:41;7.30;99.90
54930;DHT22;40833;53.238;6.576;2022-12-24T16:24:14;7.30;99.90
54930;DHT22;40833;53.238;6.576;2022-12-24T16:26:41;7.20;99.90
54930;DHT22;40833;53.238;6.576;2022-12-24T16:29:08;7.30;99.90
54930;DHT22;40833;53.238;6.576;2022-12-24T16:31:45;9.00;99.90
54930;DHT22;40833;53.238;6.576;2022-12-24T16:34:13;7.00;99.90
54930;DHT22;40833;53.238;6.576;2022-12-24T16:36:40;7.00;99.90
54930;DHT22;40833;53.238;6.576;2022-12-24T16:39:17;7.20;99.90
54930;DHT22;40833;53.238;6.576;2022-12-24T16:41:54;6.90;99.90
54930;DHT22;40833;53.238;6.576;2022-12-24T16:44:38;7.50;99.90
54930;DHT22;40833;53.238;6.576;2022-12-24T16:47:25;6.90;99.90
54930;DHT22;40833;53.238;6.576;2022-12-24T16:49:51;6.80;99.90
54930;DHT22;40833;53.238;6.576;2022-12-24T16:52:23;7.10;99.90
54930;DHT22;40833;53.238;6.576;2022-12-24T16:54:51;7.00;99.90
54930;DHT22;40833;53.238;6.576;2022-12-24T16:57:18;6.70;99.90
54930;DHT22;40833;53.238;6.576;2022-12-24T16:59:44;6.70;99.90
54930;DHT22;40833;53.238;6.576;2022-12-24T17:02:17;7.00;99.90
54930;DHT22;40833;53.238;6.576;2022-12-24T17:04:43;6.70;99.90
54930;DHT22;40833;53.238;6.576;2022-12-24T17:07:10;6.80;99.90
54930;DHT22;40833;53.238;6.576;2022-12-24T17:09:36;6.90;99.90
54930;DHT22;40833;53.238;6.576;2022-12-24T17:12:02;4.80;99.90
54930;DHT22;40833;53.238;6.576;2022-12-24T17:14:28;6.70;99.90
54930;DHT22;40833;53.238;6.576;2022-12-24T17:16:54;8.30;99.90
54930;DHT22;40833;53.238;6.576;2022-12-24T17:19:19;6.90;99.90
54930;DHT22;40833;53.238;6.576;2022-12-24T17:21:45;6.60;99.90
54930;DHT22;40833;53.238;6.576;2022-12-24T17:24:11;6.50;99.90
54930;DHT22;40833;53.238;6.576;2022-12-24T17:26:37;6.50;99.90
54930;DHT22;40833;53.238;6.576;2022-12-24T17:29:03;6.60;99.90
54930;DHT22;40833;53.238;6.576;2022-12-24T17:31:30;6.90;99.90
54930;DHT22;40833;53.238;6.576;2022-12-24T17:33:57;6.50;99.90
54930;DHT22;40833;53.238;6.576;2022-12-24T17:36:24;6.50;99.90
54930;DHT22;40833;53.238;6.576;2022-12-24T17:38:50;6.50;99.90
54930;DHT22;40833;53.238;6.576;2022-12-24T17:41:18;6.40;99.90
54930;DHT22;40833;53.238;6.576;2022-12-24T17:43:44;6.40;99.90
54930;DHT22;40833;53.238;6.576;2022-12-24T17:46:16;6.40;99.90
54930;DHT22;40833;53.238;6.576;2022-12-24T17:48:42;6.40;99.90
54930;DHT22;40833;53.238;6.576;2022-12-24T17:51:10;6.40;99.90
54930;DHT22;40833;53.238;6.576;2022-12-24T17:53:38;6.30;99.90
54930;DHT22;40833;53.238;6.576;2022-12-24T17:56:04;6.30;99.90
54930;DHT22;40833;53.238;6.576;2022-12-24T17:58:30;6.30;99.90
54930;DHT22;40833;53.238;6.576;2022-12-24T18:00:57;6.30;99.90
54930;DHT22;40833;53.238;6.576;2022-12-24T18:03:23;6.30;99.90